Time;durP1;ratioP1;P1;durP2;ratioP2;P2;SDS_P1;SDS_P2;PMS_P1;PMS_P2;Temp;Humidity;BMP_temperature;BMP_pressure;BME280_temperature;BME280_humidity;BME280_pressure;Samples;Min_cycle;Max_cycle;Signal;HPM_P1;HPM_P2
2022/03/25 00:02:17;;;;;;;8.40;2.30;;;23.40;73.80;;;;;;5047211;28;20187;-77
2022/03/25 00:04:45;;;;;;;8.73;2.27;;;23.40;73.60;;;;;;5048526;28;20638;-73
2022/03/25 00:07:12;;;;;;;8.83;2.30;;;23.10;73.80;;;;;;5058499;28;20246;-72
2022/03/25 00:09:39;;;;;;;6.10;2.07;;;23.10;74.60;;;;;;5053659;28;20175;-73
2022/03/25 00:12:07;;;;;;;9.83;2.20;;;23.20;74.40;;;;;;5048728;28;20267;-73
2022/03/25 00:14:35;;;;;;;7.63;2.20;;;23.30;74.80;;;;;;5047794;28;20278;-74
2022/03/25 00:17:02;;;;;;;8.97;2.33;;;23.10;72.90;;;;;;5068453;28;20538;-75
2022/03/25 00:19:30;;;;;;;10.20;2.40;;;23.10;73.50;;;;;;5042538;28;20176;-74
2022/03/25 00:21:57;;;;;;;10.23;1.90;;;22.90;73.60;;;;;;5050811;28;20210;-71
2022/03/25 00:24:25;;;;;;;6.90;1.90;;;22.90;74.10;;;;;;5052220;28;20262;-72
2022/03/25 00:26:52;;;;;;;7.13;1.83;;;22.80;74.20;;;;;;5053112;28;20584;-73
2022/03/25 00:29:19;;;;;;;11.23;2.30;;;22.70;74.50;;;;;;5052448;28;20212;-73
2022/03/25 00:31:47;;;;;;;12.60;2.20;;;22.50;75.60;;;;;;5054986;28;20184;-72
2022/03/25 00:34:14;;;;;;;12.47;2.30;;;22.40;76.70;;;;;;5047434;28;20638;-73
2022/03/25 00:36:42;;;;;;;9.10;2.07;;;22.30;76.10;;;;;;5042031;28;20183;-72
2022/03/25 00:39:09;;;;;;;9.80;2.10;;;22.40;76.40;;;;;;5049706;28;20188;-74
2022/03/25 00:41:37;;;;;;;7.90;1.93;;;22.40;75.90;;;;;;5054374;28;20309;-72
2022/03/25 00:44:08;;;;;;;8.87;2.13;;;22.40;75.80;;;;;;5051529;28;20184;-74
2022/03/25 00:46:35;;;;;;;7.93;1.80;;;22.60;76.00;;;;;;5046582;28;20220;-73
2022/03/25 00:49:04;;;;;;;9.47;2.37;;;22.30;75.20;;;;;;5038248;28;20184;-73
2022/03/25 00:51:32;;;;;;;9.33;2.17;;;22.30;75.80;;;;;;5036289;28;20184;-73
2022/03/25 00:53:59;;;;;;;7.67;2.10;;;22.40;75.40;;;;;;5045339;28;20547;-72
2022/03/25 00:56:26;;;;;;;7.30;1.97;;;22.40;75.50;;;;;;5047078;28;20200;-75
2022/03/25 00:58:54;;;;;;;10.50;2.50;;;22.50;74.90;;;;;;5047397;28;20188;-72
2022/03/25 01:01:21;;;;;;;10.60;2.10;;;22.60;74.80;;;;;;5040375;28;20350;-73
2022/03/25 01:03:49;;;;;;;10.43;2.30;;;22.80;73.80;;;;;;5051399;28;20207;-72
2022/03/25 01:06:18;;;;;;;9.77;2.60;;;22.80;73.30;;;;;;5061018;28;20313;-72
2022/03/25 01:08:45;;;;;;;10.80;2.37;;;23.00;72.70;;;;;;5047327;28;20234;-72
2022/03/25 01:11:13;;;;;;;7.07;2.20;;;23.30;72.30;;;;;;5048330;28;20191;-72
2022/03/25 01:13:40;;;;;;;5.47;1.60;;;23.70;71.30;;;;;;5051559;28;20188;-71
2022/03/25 01:16:08;;;;;;;8.03;2.20;;;23.80;70.20;;;;;;5052614;28;20168;-74
2022/03/25 01:18:36;;;;;;;10.00;2.00;;;23.80;68.60;;;;;;5050901;28;20274;-72
2022/03/25 01:21:03;;;;;;;9.63;2.20;;;23.90;67.60;;;;;;5051471;28;20183;-71
2022/03/25 01:23:30;;;;;;;8.60;1.87;;;23.80;67.80;;;;;;5051850;28;20563;-72
2022/03/25 01:25:58;;;;;;;5.03;1.67;;;23.80;68.00;;;;;;5051220;28;20208;-73
2022/03/25 01:28:25;;;;;;;7.23;1.73;;;23.80;67.50;;;;;;5050483;28;20176;-71
2022/03/25 01:30:52;;;;;;;8.30;1.90;;;23.80;67.90;;;;;;5051362;28;20238;-74
2022/03/25 01:33:20;;;;;;;7.23;2.10;;;23.80;68.30;;;;;;5050767;28;20183;-73
2022/03/25 01:35:47;;;;;;;7.03;1.87;;;23.80;66.50;;;;;;5045933;28;20639;-72
2022/03/25 01:38:15;;;;;;;5.93;1.93;;;23.60;66.70;;;;;;5038240;28;20184;-71
2022/03/25 01:40:43;;;;;;;6.07;1.93;;;23.60;67.20;;;;;;5046779;28;20199;-73
2022/03/25 01:43:10;;;;;;;6.80;2.17;;;23.50;68.50;;;;;;5052459;28;20187;-72
2022/03/25 01:45:41;;;;;;;9.57;2.30;;;23.90;66.70;;;;;;5049140;28;20243;-71
2022/03/25 01:48:11;;;;;;;6.07;1.93;;;24.20;63.80;;;;;;5045864;28;20172;-72
2022/03/25 01:50:41;;;;;;;9.00;2.10;;;24.50;63.70;;;;;;5034991;28;20188;-74
2022/03/25 01:53:27;;;;;;;6.13;1.90;;;24.60;62.10;;;;;;5051650;28;20206;-72
2022/03/25 01:55:59;;;;;;;11.70;2.20;;;24.80;62.60;;;;;;5044672;28;20262;-71
2022/03/25 01:58:31;;;;;;;7.10;2.07;;;24.80;61.50;;;;;;5050547;28;20187;-72
2022/03/25 02:01:02;;;;;;;10.63;2.60;;;25.10;62.50;;;;;;5052308;28;20175;-71
2022/03/25 02:03:31;;;;;;;14.77;1.93;;;25.20;62.10;;;;;;5049222;28;20191;-71
2022/03/25 02:05:58;;;;;;;10.17;2.30;;;25.20;61.20;;;;;;5052954;28;20204;-71
2022/03/25 02:08:26;;;;;;;9.33;2.50;;;25.20;62.00;;;;;;5056524;28;20202;-72
2022/03/25 02:10:53;;;;;;;5.20;1.77;;;25.10;62.00;;;;;;5054922;28;20183;-71
2022/03/25 02:13:20;;;;;;;3.97;2.00;;;25.10;60.20;;;;;;5055422;28;20176;-72
2022/03/25 02:15:48;;;;;;;12.23;2.10;;;25.20;60.20;;;;;;5056209;28;20222;-71
2022/03/25 02:18:20;;;;;;;8.80;2.10;;;25.40;59.70;;;;;;5037002;28;20188;-70
2022/03/25 02:20:50;;;;;;;6.63;1.90;;;25.30;59.80;;;;;;5036112;28;20258;-70
2022/03/25 02:23:18;;;;;;;6.17;1.50;;;25.00;60.80;;;;;;5036318;28;20535;-70
2022/03/25 02:25:51;;;;;;;13.33;2.93;;;24.80;60.90;;;;;;5035292;28;20212;-70
2022/03/25 02:28:19;;;;;;;5.63;1.40;;;25.10;60.80;;;;;;5036183;28;20225;-70
2022/03/25 02:30:46;;;;;;;5.03;1.50;;;25.00;59.30;;;;;;5035959;28;20547;-72
2022/03/25 02:33:14;;;;;;;8.67;1.83;;;25.30;63.20;;;;;;5051763;28;20528;-71
2022/03/25 02:35:41;;;;;;;7.73;1.90;;;24.90;67.10;;;;;;5056067;28;20179;-71
2022/03/25 02:38:11;;;;;;;5.40;1.90;;;24.50;68.40;;;;;;5055864;28;20178;-77
2022/03/25 02:40:39;;;;;;;7.43;2.40;;;23.90;69.40;;;;;;5055557;28;20187;-72
2022/03/25 02:43:06;;;;;;;8.03;2.00;;;23.80;69.90;;;;;;5055990;28;20266;-72
2022/03/25 02:45:37;;;;;;;9.10;2.17;;;23.70;70.50;;;;;;5055712;28;20207;-76
2022/03/25 02:48:06;;;;;;;9.83;1.97;;;23.80;70.60;;;;;;5055106;28;20237;-74
2022/03/25 02:50:34;;;;;;;9.60;2.30;;;23.60;70.90;;;;;;5055839;28;20180;-76
2022/03/25 02:53:02;;;;;;;7.33;1.80;;;23.70;70.80;;;;;;5055444;28;20184;-73
2022/03/25 02:55:30;;;;;;;13.17;2.50;;;23.80;70.40;;;;;;5053825;28;20180;-72
2022/03/25 02:58:00;;;;;;;9.23;2.00;;;23.80;69.60;;;;;;5050247;28;20199;-77
2022/03/25 03:00:28;;;;;;;11.87;2.40;;;23.90;69.40;;;;;;5054441;28;20205;-77
2022/03/25 03:03:00;;;;;;;9.40;2.50;;;24.10;69.30;;;;;;5053757;28;20200;-78
2022/03/25 03:05:31;;;;;;;5.60;2.27;;;24.20;69.30;;;;;;5055385;28;20212;-76
2022/03/25 03:07:59;;;;;;;9.90;2.30;;;24.20;67.80;;;;;;5055309;28;20701;-71
2022/03/25 03:10:27;;;;;;;9.13;2.50;;;24.30;68.40;;;;;;5055585;28;20191;-77
2022/03/25 03:12:55;;;;;;;7.23;1.87;;;24.40;67.80;;;;;;5055189;28;20183;-76
2022/03/25 03:15:24;;;;;;;6.70;2.13;;;24.50;67.40;;;;;;5055200;28;20217;-78
2022/03/25 03:17:52;;;;;;;10.93;2.00;;;24.40;68.00;;;;;;5054848;28;20207;-77
2022/03/25 03:20:21;;;;;;;6.53;1.87;;;24.20;69.10;;;;;;5055467;28;20553;-74
2022/03/25 03:22:48;;;;;;;7.67;1.93;;;23.70;71.10;;;;;;5053992;28;20195;-73
2022/03/25 03:25:16;;;;;;;6.17;1.70;;;23.80;71.40;;;;;;5054808;28;20211;-73
2022/03/25 03:27:44;;;;;;;6.60;2.13;;;23.90;71.20;;;;;;5053072;28;20635;-71
2022/03/25 03:30:12;;;;;;;9.60;2.13;;;24.00;70.80;;;;;;5050540;28;20184;-72
2022/03/25 03:32:40;;;;;;;7.20;1.90;;;24.20;71.00;;;;;;5054221;28;20187;-72
2022/03/25 03:35:09;;;;;;;5.57;1.97;;;24.30;70.40;;;;;;5054050;28;20241;-71
2022/03/25 03:37:46;;;;;;;7.63;2.17;;;24.20;70.80;;;;;;5054672;28;20180;-72
2022/03/25 03:40:15;;;;;;;7.03;2.20;;;24.50;69.30;;;;;;5051160;28;20175;-72
2022/03/25 03:42:43;;;;;;;12.53;2.57;;;24.50;69.40;;;;;;5037156;28;20183;-74
2022/03/25 03:45:11;;;;;;;8.90;1.90;;;24.40;69.40;;;;;;5054256;28;20735;-72
2022/03/25 03:47:40;;;;;;;10.43;2.73;;;24.10;70.60;;;;;;5036073;28;20188;-72
2022/03/25 03:50:11;;;;;;;7.43;2.67;;;23.90;71.10;;;;;;5034718;28;20691;-71
2022/03/25 03:52:40;;;;;;;5.10;1.77;;;23.80;71.00;;;;;;5044868;28;20184;-72
2022/03/25 03:55:09;;;;;;;7.97;2.00;;;23.60;71.40;;;;;;5045406;28;20259;-73
2022/03/25 03:57:40;;;;;;;7.53;1.70;;;23.40;72.60;;;;;;5035556;28;20267;-73
2022/03/25 04:00:13;;;;;;;7.20;2.30;;;23.10;73.30;;;;;;5043970;28;20279;-72
2022/03/25 04:02:44;;;;;;;17.03;2.57;;;22.90;74.40;;;;;;5052401;28;20177;-73
2022/03/25 04:05:11;;;;;;;9.43;2.47;;;22.90;75.00;;;;;;5047894;28;20257;-71
2022/03/25 04:07:46;;;;;;;8.00;2.67;;;22.80;74.20;;;;;;5053007;28;20755;-71
2022/03/25 04:10:16;;;;;;;8.70;2.00;;;22.80;74.60;;;;;;5052492;28;20690;-71
2022/03/25 04:12:44;;;;;;;8.97;2.10;;;23.00;74.30;;;;;;5053383;28;20172;-71
2022/03/25 04:15:12;;;;;;;9.37;2.27;;;23.00;73.50;;;;;;5053583;28;20525;-72
2022/03/25 04:17:41;;;;;;;13.93;3.10;;;23.00;73.70;;;;;;5053941;28;20176;-72
2022/03/25 04:20:10;;;;;;;6.77;2.30;;;22.90;74.50;;;;;;5053934;28;20634;-71
2022/03/25 04:22:38;;;;;;;12.37;2.30;;;23.00;74.10;;;;;;5053517;28;20176;-70
2022/03/25 04:25:07;;;;;;;11.97;2.40;;;23.00;74.20;;;;;;5053794;28;20578;-72
2022/03/25 04:27:45;;;;;;;8.80;2.60;;;23.10;74.30;;;;;;5053467;28;20271;-71
2022/03/25 04:30:13;;;;;;;12.90;2.80;;;23.20;74.40;;;;;;5053089;28;20195;-72
2022/03/25 04:32:40;;;;;;;6.73;2.30;;;23.40;74.10;;;;;;5052584;28;20589;-71
2022/03/25 04:35:08;;;;;;;6.70;2.13;;;23.60;73.00;;;;;;5053399;28;20313;-71
2022/03/25 04:37:35;;;;;;;6.47;2.40;;;23.70;72.50;;;;;;5053201;28;20176;-73
2022/03/25 04:40:03;;;;;;;7.30;2.20;;;23.80;72.20;;;;;;5053580;28;20175;-72
2022/03/25 04:42:30;;;;;;;10.10;2.70;;;23.80;72.00;;;;;;5052434;28;20263;-72
2022/03/25 04:45:01;;;;;;;5.77;2.17;;;23.80;71.80;;;;;;5052805;28;20261;-72
2022/03/25 04:47:28;;;;;;;5.30;2.13;;;23.90;72.50;;;;;;5053093;28;20550;-71
2022/03/25 04:49:56;;;;;;;5.83;2.03;;;23.80;72.60;;;;;;5053483;28;20183;-72
2022/03/25 04:52:23;;;;;;;4.27;2.07;;;23.70;73.10;;;;;;5052964;28;20195;-74
2022/03/25 04:54:51;;;;;;;8.13;1.57;;;23.60;72.60;;;;;;5053279;28;20517;-75
2022/03/25 04:57:18;;;;;;;9.60;2.10;;;23.50;73.20;;;;;;5044997;28;20611;-77
2022/03/25 04:59:47;;;;;;;6.27;1.73;;;23.30;74.20;;;;;;5043392;28;20176;-71
2022/03/25 05:02:14;;;;;;;5.80;1.67;;;23.10;74.40;;;;;;5032279;28;20279;-75
2022/03/25 05:04:42;;;;;;;5.17;1.90;;;23.30;74.90;;;;;;5043234;28;20330;-72
2022/03/25 05:07:19;;;;;;;10.43;1.83;;;23.20;74.40;;;;;;5045801;28;20306;-73
2022/03/25 05:09:46;;;;;;;6.47;1.70;;;23.20;75.10;;;;;;5046652;28;20495;-76
2022/03/25 05:12:14;;;;;;;7.50;1.87;;;23.00;74.00;;;;;;5042083;28;20233;-75
2022/03/25 05:14:41;;;;;;;9.80;1.97;;;22.60;76.20;;;;;;5052389;28;20168;-73
2022/03/25 05:17:09;;;;;;;7.77;1.90;;;22.30;76.60;;;;;;5050917;28;20184;-73
2022/03/25 05:19:36;;;;;;;9.20;3.23;;;21.90;79.20;;;;;;5052296;28;20176;-72
2022/03/25 05:22:04;;;;;;;9.73;3.23;;;21.10;84.40;;;;;;5049362;28;20185;-74
2022/03/25 05:24:31;;;;;;;13.87;3.67;;;20.60;87.40;;;;;;5052879;28;20700;-73
2022/03/25 05:26:59;;;;;;;13.07;3.97;;;20.40;89.30;;;;;;5052817;28;20207;-76
2022/03/25 05:29:28;;;;;;;8.97;3.57;;;20.20;89.40;;;;;;5052229;28;20273;-72
2022/03/25 05:31:55;;;;;;;11.93;3.40;;;19.90;90.30;;;;;;5052305;28;20237;-74
2022/03/25 05:34:23;;;;;;;13.97;3.50;;;19.80;91.20;;;;;;5047679;28;20185;-72
2022/03/25 05:36:50;;;;;;;13.43;3.93;;;19.70;91.10;;;;;;5052176;28;20188;-71
2022/03/25 05:39:18;;;;;;;12.33;4.70;;;19.70;91.20;;;;;;5050890;28;20550;-74
2022/03/25 05:41:45;;;;;;;9.87;4.00;;;19.80;91.80;;;;;;5052280;28;20179;-73
2022/03/25 05:44:12;;;;;;;11.63;4.47;;;19.80;91.70;;;;;;5052068;28;20558;-74
2022/03/25 05:46:40;;;;;;;9.50;4.00;;;19.80;90.90;;;;;;5052247;28;20257;-72
2022/03/25 05:49:08;;;;;;;12.53;4.40;;;19.80;90.80;;;;;;5052010;28;20180;-74
2022/03/25 05:51:35;;;;;;;10.60;4.00;;;19.90;90.90;;;;;;5052465;28;20248;-73
2022/03/25 05:54:02;;;;;;;8.80;3.90;;;19.90;90.60;;;;;;5051196;28;20203;-73
2022/03/25 05:56:30;;;;;;;7.43;3.47;;;19.80;90.00;;;;;;5049977;28;20188;-73
2022/03/25 05:58:57;;;;;;;10.30;3.30;;;19.80;89.40;;;;;;5043252;28;20677;-73
2022/03/25 06:01:24;;;;;;;10.93;3.70;;;19.80;89.80;;;;;;5052004;28;20180;-74
2022/03/25 06:03:52;;;;;;;10.50;3.93;;;19.80;89.20;;;;;;5052717;28;20187;-74
2022/03/25 06:06:20;;;;;;;9.73;3.57;;;19.90;89.30;;;;;;5051896;28;20698;-72
2022/03/25 06:08:47;;;;;;;7.93;3.17;;;19.90;89.30;;;;;;5052007;28;20273;-74
2022/03/25 06:11:14;;;;;;;6.70;3.00;;;19.90;88.50;;;;;;5047907;28;20191;-73
2022/03/25 06:13:42;;;;;;;10.83;4.03;;;19.90;88.50;;;;;;5052111;28;20294;-72
2022/03/25 06:16:10;;;;;;;9.73;4.00;;;19.90;89.00;;;;;;5051385;28;20266;-73
2022/03/25 06:18:38;;;;;;;13.93;4.27;;;19.90;88.60;;;;;;5049641;28;20196;-72
2022/03/25 06:21:06;;;;;;;12.67;3.83;;;20.00;89.10;;;;;;5049751;28;20197;-71
2022/03/25 06:23:33;;;;;;;8.73;3.47;;;19.80;88.00;;;;;;5051401;28;20199;-75
2022/03/25 06:26:01;;;;;;;10.50;3.40;;;19.70;87.70;;;;;;5053477;28;20234;-72
2022/03/25 06:28:28;;;;;;;9.97;3.40;;;19.80;88.10;;;;;;5051515;28;20172;-73
2022/03/25 06:30:58;;;;;;;7.33;3.03;;;19.80;87.40;;;;;;5048572;28;20180;-73
2022/03/25 06:33:25;;;;;;;13.87;3.50;;;19.80;87.60;;;;;;5052308;28;20262;-74
2022/03/25 06:35:53;;;;;;;10.27;3.87;;;19.90;88.40;;;;;;5052100;28;20263;-74
2022/03/25 06:38:21;;;;;;;11.80;3.50;;;20.00;88.80;;;;;;5051216;28;20172;-74
2022/03/25 06:40:48;;;;;;;9.07;3.10;;;20.10;89.40;;;;;;5051827;28;20184;-75
2022/03/25 06:43:15;;;;;;;9.20;3.10;;;20.10;88.10;;;;;;5052565;28;20172;-73
2022/03/25 06:45:43;;;;;;;8.13;3.30;;;20.10;87.80;;;;;;5051610;28;20655;-73
2022/03/25 06:48:10;;;;;;;7.43;3.70;;;20.00;87.70;;;;;;5053157;28;20229;-72
2022/03/25 06:50:38;;;;;;;10.63;3.70;;;20.10;88.30;;;;;;5049754;28;20196;-72
2022/03/25 06:53:05;;;;;;;12.90;3.63;;;20.00;87.60;;;;;;5055463;28;20183;-72
2022/03/25 06:55:33;;;;;;;11.17;3.97;;;19.90;88.50;;;;;;5047862;28;20603;-73
2022/03/25 06:58:01;;;;;;;10.10;3.77;;;19.90;88.00;;;;;;5038224;28;20614;-73
2022/03/25 07:00:28;;;;;;;11.17;3.50;;;20.00;88.50;;;;;;5053151;28;20200;-73
2022/03/25 07:02:59;;;;;;;12.23;4.67;;;20.10;89.40;;;;;;5053688;28;20180;-73
2022/03/25 07:05:29;;;;;;;10.50;4.80;;;20.20;89.30;;;;;;5052011;28;20224;-74
2022/03/25 07:07:58;;;;;;;11.37;3.83;;;20.30;89.90;;;;;;5055120;28;20297;-74
2022/03/25 07:10:26;;;;;;;10.97;4.10;;;20.30;89.50;;;;;;5053024;28;20229;-74
2022/03/25 07:12:54;;;;;;;12.67;4.53;;;20.30;89.30;;;;;;5054949;28;20199;-74
2022/03/25 07:15:23;;;;;;;10.97;4.40;;;20.30;89.40;;;;;;5054974;28;20670;-74
2022/03/25 07:17:52;;;;;;;8.97;4.53;;;20.30;89.50;;;;;;5054899;28;20184;-75
2022/03/25 07:20:21;;;;;;;10.77;4.27;;;20.30;89.80;;;;;;5055095;28;20305;-74
2022/03/25 07:22:51;;;;;;;10.87;4.50;;;20.30;89.80;;;;;;5052475;28;20191;-75
2022/03/25 07:25:20;;;;;;;10.40;5.07;;;20.40;89.90;;;;;;5059420;28;20714;-73
2022/03/25 07:27:49;;;;;;;11.07;4.77;;;20.50;89.80;;;;;;5035339;28;20191;-73
2022/03/25 07:30:18;;;;;;;13.70;4.77;;;20.50;90.20;;;;;;5034899;28;20254;-74
2022/03/25 07:32:46;;;;;;;10.93;4.53;;;20.50;90.00;;;;;;5044549;28;20615;-74
2022/03/25 07:35:14;;;;;;;9.10;4.27;;;20.60;89.90;;;;;;5054728;28;20234;-73
2022/03/25 07:37:43;;;;;;;9.20;4.20;;;20.50;89.70;;;;;;5053821;28;20188;-74
2022/03/25 07:40:13;;;;;;;10.33;4.17;;;20.50;89.80;;;;;;5054622;28;20168;-74
2022/03/25 07:42:42;;;;;;;11.23;4.53;;;20.30;89.90;;;;;;5054601;28;20630;-74
2022/03/25 07:45:13;;;;;;;10.77;4.27;;;20.30;90.20;;;;;;5046075;28;20220;-75
2022/03/25 07:47:42;;;;;;;12.30;4.23;;;20.30;90.10;;;;;;5050713;28;20191;-74
2022/03/25 07:50:12;;;;;;;16.30;4.70;;;20.20;90.00;;;;;;5054728;28;20623;-75
2022/03/25 07:52:41;;;;;;;8.77;3.93;;;20.10;90.00;;;;;;5064242;28;20657;-74
2022/03/25 07:55:10;;;;;;;12.63;3.83;;;20.00;89.50;;;;;;5048153;28;20199;-74
2022/03/25 07:57:39;;;;;;;11.30;4.23;;;19.90;88.70;;;;;;5056115;28;20550;-74
2022/03/25 08:00:14;;;;;;;8.20;3.47;;;19.80;88.70;;;;;;5054242;28;20275;-75
2022/03/25 08:02:50;;;;;;;10.43;3.80;;;19.80;87.60;;;;;;5041242;28;20180;-73
2022/03/25 08:05:18;;;;;;;7.43;3.53;;;19.70;87.00;;;;;;5045659;28;20559;-73
2022/03/25 08:07:53;;;;;;;10.00;3.60;;;19.70;86.90;;;;;;5052374;28;20314;-73
2022/03/25 08:10:26;;;;;;;5.87;3.00;;;19.60;86.60;;;;;;5051172;28;20270;-75
2022/03/25 08:12:54;;;;;;;8.87;2.80;;;19.60;85.50;;;;;;5052965;28;20655;-75
2022/03/25 08:18:44;;;;;;;8.40;3.30;;;19.50;85.80;;;;;;5038144;28;20238;-76
2022/03/25 08:21:11;;;;;;;7.50;2.93;;;19.50;85.90;;;;;;5038602;28;20186;-75
2022/03/25 08:29:10;;;;;;;9.63;3.47;;;19.30;84.90;;;;;;5037751;28;20515;-77
2022/03/25 08:31:37;;;;;;;8.87;2.90;;;19.30;84.80;;;;;;5036327;28;20185;-77
2022/03/25 08:34:07;;;;;;;8.50;3.07;;;19.30;84.80;;;;;;5048183;28;20172;-76
2022/03/25 08:36:35;;;;;;;9.43;3.13;;;19.30;84.50;;;;;;5034112;28;20558;-76
2022/03/25 08:39:03;;;;;;;5.73;2.40;;;19.20;83.70;;;;;;5041629;28;20196;-78
2022/03/25 08:41:34;;;;;;;7.13;2.90;;;19.30;82.00;;;;;;5051425;28;20704;-78
2022/03/25 08:44:01;;;;;;;4.97;3.00;;;19.30;81.60;;;;;;5053467;28;20168;-76
2022/03/25 08:46:29;;;;;;;5.20;2.60;;;19.30;81.10;;;;;;5051787;28;20310;-76
2022/03/25 08:48:56;;;;;;;6.43;2.53;;;19.30;81.00;;;;;;5051720;28;20191;-79
2022/03/25 08:51:24;;;;;;;8.60;2.73;;;19.30;81.00;;;;;;5049711;28;20190;-78
2022/03/25 08:53:51;;;;;;;8.03;2.93;;;19.20;81.30;;;;;;5051548;28;20199;-78
2022/03/25 08:56:19;;;;;;;10.03;3.20;;;19.20;81.80;;;;;;5051855;28;20168;-78
2022/03/25 08:58:47;;;;;;;7.97;3.13;;;19.20;81.90;;;;;;5046362;28;20651;-77
2022/03/25 09:01:14;;;;;;;6.97;2.47;;;19.20;82.40;;;;;;5045170;28;20718;-80
2022/03/25 09:03:41;;;;;;;6.33;2.20;;;19.20;82.30;;;;;;5045856;28;20212;-77
2022/03/25 09:06:10;;;;;;;6.93;2.70;;;19.20;82.00;;;;;;5050706;28;20686;-77
2022/03/25 09:08:37;;;;;;;10.73;2.63;;;19.20;81.60;;;;;;5042607;28;20180;-76
2022/03/25 09:11:04;;;;;;;12.60;3.10;;;19.30;81.50;;;;;;5034949;28;20647;-77
2022/03/25 09:13:32;;;;;;;6.73;2.60;;;19.40;82.30;;;;;;5037088;28;20195;-77
2022/03/25 09:15:59;;;;;;;7.40;2.80;;;19.40;82.00;;;;;;5052717;28;20655;-76
2022/03/25 09:18:26;;;;;;;8.47;3.40;;;19.50;82.40;;;;;;5052948;28;20167;-77
2022/03/25 09:20:54;;;;;;;10.97;2.77;;;19.50;82.40;;;;;;5051786;28;20196;-76
2022/03/25 09:23:21;;;;;;;6.67;2.67;;;19.60;82.00;;;;;;5037580;28;20636;-77
2022/03/25 09:25:48;;;;;;;8.97;2.57;;;19.70;81.80;;;;;;5052934;28;20207;-78
2022/03/25 09:28:16;;;;;;;7.63;2.77;;;19.70;81.60;;;;;;5053385;28;20638;-77
2022/03/25 09:30:43;;;;;;;7.70;2.80;;;19.80;80.90;;;;;;5037448;28;20173;-77
2022/03/25 09:33:11;;;;;;;8.27;3.33;;;19.90;81.10;;;;;;5040445;28;20178;-77
2022/03/25 09:35:40;;;;;;;6.67;2.60;;;19.90;80.90;;;;;;5054059;28;20176;-75
2022/03/25 09:38:08;;;;;;;6.67;2.77;;;19.90;81.10;;;;;;5051231;28;20194;-76
2022/03/25 09:40:36;;;;;;;7.30;3.50;;;19.90;81.20;;;;;;5052359;28;20302;-77
2022/03/25 09:43:04;;;;;;;6.10;2.70;;;20.00;81.70;;;;;;5045367;28;20184;-76
2022/03/25 09:45:33;;;;;;;6.37;2.70;;;20.00;81.10;;;;;;5044520;28;20709;-73
2022/03/25 09:48:01;;;;;;;10.97;2.83;;;20.00;81.20;;;;;;5052251;28;20176;-74
2022/03/25 09:50:29;;;;;;;8.93;3.13;;;20.00;80.90;;;;;;5052169;28;20238;-74
2022/03/25 09:52:57;;;;;;;7.97;2.60;;;20.10;81.30;;;;;;5052435;28;20184;-75
2022/03/25 09:55:24;;;;;;;10.03;2.83;;;20.10;81.00;;;;;;5052395;28;20254;-73
2022/03/25 09:57:52;;;;;;;10.13;3.00;;;20.10;81.30;;;;;;5035069;28;20191;-74
2022/03/25 10:00:20;;;;;;;5.57;2.67;;;20.10;81.10;;;;;;5044808;28;20180;-76
2022/03/25 10:02:48;;;;;;;7.57;2.87;;;20.20;81.30;;;;;;5051475;28;20194;-74
2022/03/25 10:05:22;;;;;;;8.23;2.43;;;20.10;81.30;;;;;;5052617;28;20246;-74
2022/03/25 10:07:52;;;;;;;9.30;2.10;;;20.10;81.50;;;;;;5052395;28;20598;-74
2022/03/25 10:10:22;;;;;;;9.60;2.80;;;20.00;81.60;;;;;;5046616;28;20597;-74
2022/03/25 10:12:52;;;;;;;11.43;2.73;;;19.90;81.60;;;;;;5032323;28;20204;-75
2022/03/25 10:15:28;;;;;;;9.90;2.40;;;19.90;82.00;;;;;;5033594;28;20192;-74
2022/03/25 10:18:06;;;;;;;8.67;2.70;;;20.00;81.90;;;;;;5050772;28;20313;-73
2022/03/25 10:20:36;;;;;;;11.53;2.90;;;20.00;82.20;;;;;;5044593;28;20176;-74
2022/03/25 10:23:09;;;;;;;8.93;2.27;;;20.00;81.80;;;;;;5049302;28;20655;-74
2022/03/25 10:25:59;;;;;;;8.70;2.67;;;20.00;82.40;;;;;;5045638;28;20699;-74
2022/03/25 10:28:31;;;;;;;8.20;2.60;;;20.00;81.90;;;;;;5036432;28;20548;-74
2022/03/25 10:31:06;;;;;;;9.13;2.60;;;19.90;82.00;;;;;;5037009;28;20195;-74
2022/03/25 10:33:38;;;;;;;9.60;2.30;;;19.90;82.00;;;;;;5041024;28;20180;-72
2022/03/25 10:36:07;;;;;;;13.37;2.53;;;19.90;82.00;;;;;;5046136;28;20176;-72
2022/03/25 10:38:48;;;;;;;13.63;3.00;;;19.80;82.00;;;;;;5054816;28;20179;-73
2022/03/25 10:41:24;;;;;;;9.17;3.07;;;19.80;82.10;;;;;;5051581;28;20261;-72
2022/03/25 10:43:56;;;;;;;9.70;2.33;;;19.80;82.00;;;;;;5044410;28;20179;-73
2022/03/25 10:46:36;;;;;;;6.43;1.90;;;19.80;81.90;;;;;;5044493;28;20303;-72
2022/03/25 10:49:06;;;;;;;7.40;2.20;;;19.80;82.10;;;;;;5052270;28;20175;-72
2022/03/25 10:51:35;;;;;;;7.93;2.50;;;19.80;82.60;;;;;;5038759;28;20669;-73
2022/03/25 10:54:09;;;;;;;11.47;2.40;;;19.80;82.90;;;;;;5055083;28;20175;-72
2022/03/25 10:56:50;;;;;;;6.77;2.30;;;19.80;82.90;;;;;;5050454;28;20215;-73
2022/03/25 10:59:22;;;;;;;13.87;2.47;;;19.80;83.00;;;;;;5048664;28;20582;-72
2022/03/25 11:01:58;;;;;;;9.53;2.37;;;19.80;82.70;;;;;;5050554;28;20271;-72
2022/03/25 11:04:27;;;;;;;12.27;2.83;;;19.80;82.60;;;;;;5051241;28;20713;-72
2022/03/25 11:06:56;;;;;;;8.60;2.23;;;19.80;82.60;;;;;;5054437;28;20285;-72
2022/03/25 11:09:26;;;;;;;11.47;2.53;;;19.80;82.60;;;;;;5049930;28;20188;-72
2022/03/25 11:11:55;;;;;;;12.30;3.50;;;19.70;82.80;;;;;;5035139;28;20184;-71
2022/03/25 11:14:23;;;;;;;13.17;2.53;;;19.70;83.00;;;;;;5035583;28;20183;-73
2022/03/25 11:17:02;;;;;;;10.83;2.90;;;19.70;83.20;;;;;;5035195;28;20180;-73
2022/03/25 11:19:30;;;;;;;10.03;2.63;;;19.70;83.30;;;;;;5049481;28;20183;-72
2022/03/25 11:21:58;;;;;;;14.13;2.90;;;19.70;83.40;;;;;;5055149;28;20180;-72
2022/03/25 11:24:30;;;;;;;10.37;2.80;;;19.60;83.60;;;;;;5055474;28;20210;-72
2022/03/25 11:26:59;;;;;;;9.53;3.10;;;19.60;83.90;;;;;;5054747;28;20291;-72
2022/03/25 11:29:32;;;;;;;13.67;2.97;;;19.60;84.10;;;;;;5054685;28;20195;-72
2022/03/25 11:32:25;;;;;;;13.97;2.77;;;19.60;84.30;;;;;;5055001;28;20171;-72
2022/03/25 11:35:16;;;;;;;9.83;2.47;;;19.60;84.50;;;;;;5051797;28;20195;-72
2022/03/25 11:37:43;;;;;;;10.13;2.67;;;19.60;84.60;;;;;;5048126;28;20180;-72
2022/03/25 11:40:22;;;;;;;12.07;2.50;;;19.60;84.50;;;;;;5053439;28;20215;-72
2022/03/25 11:42:52;;;;;;;8.10;2.67;;;19.60;84.60;;;;;;5054956;28;20183;-73
2022/03/25 11:45:22;;;;;;;10.27;2.37;;;19.50;84.60;;;;;;5054772;28;20312;-72
2022/03/25 11:48:04;;;;;;;10.93;2.90;;;19.60;84.70;;;;;;5052606;28;20187;-72
2022/03/25 11:50:33;;;;;;;7.47;2.20;;;19.50;84.70;;;;;;5053151;28;20175;-72
2022/03/25 11:53:25;;;;;;;11.23;2.63;;;19.60;84.90;;;;;;5055095;28;20635;-70
2022/03/25 11:56:03;;;;;;;12.63;2.20;;;19.90;82.90;;;;;;5054823;28;20172;-73
2022/03/25 11:58:36;;;;;;;3.50;1.27;;;20.20;81.50;;;;;;5053760;28;20187;-71
2022/03/25 12:01:06;;;;;;;4.00;1.20;;;20.30;80.60;;;;;;5043741;28;20185;-72
2022/03/25 12:03:52;;;;;;;4.10;1.20;;;20.30;79.90;;;;;;5051799;28;20184;-73
2022/03/25 12:06:25;;;;;;;2.33;1.00;;;20.20;80.60;;;;;;5054301;28;20235;-72
2022/03/25 12:09:18;;;;;;;4.87;1.40;;;20.10;80.90;;;;;;5053275;28;20262;-72
2022/03/25 12:12:01;;;;;;;14.20;1.80;;;20.00;82.40;;;;;;5030126;28;20663;-73
2022/03/25 12:14:33;;;;;;;5.30;1.70;;;19.80;83.50;;;;;;5034572;28;20234;-72
2022/03/25 12:17:06;;;;;;;6.73;1.63;;;19.80;84.50;;;;;;5034268;28;20186;-73
2022/03/25 12:19:39;;;;;;;6.97;1.50;;;19.70;85.10;;;;;;5041640;28;20186;-73
2022/03/25 12:22:21;;;;;;;3.53;1.37;;;19.60;85.50;;;;;;5054212;28;20241;-73
2022/03/25 12:24:52;;;;;;;8.40;1.83;;;19.60;86.10;;;;;;5051984;28;20233;-73
2022/03/25 12:27:21;;;;;;;3.63;1.47;;;19.50;86.50;;;;;;5054269;28;20575;-73
2022/03/25 12:29:53;;;;;;;5.60;1.87;;;19.40;86.90;;;;;;5049414;28;20191;-73
2022/03/25 12:32:23;;;;;;;6.50;1.60;;;19.30;87.20;;;;;;5052704;28;20270;-73
2022/03/25 12:35:11;;;;;;;8.27;1.70;;;19.30;87.60;;;;;;5053568;28;20197;-72
2022/03/25 12:38:03;;;;;;;6.90;1.87;;;19.30;88.00;;;;;;5053991;28;20266;-72
2022/03/25 12:40:33;;;;;;;4.57;2.00;;;19.30;88.90;;;;;;5044078;28;20227;-73
2022/03/25 12:43:08;;;;;;;7.33;2.03;;;19.30;89.10;;;;;;5033911;28;20255;-72
2022/03/25 12:45:48;;;;;;;6.97;1.83;;;19.30;89.30;;;;;;5051541;28;20241;-73
2022/03/25 12:48:24;;;;;;;4.33;1.87;;;19.20;89.50;;;;;;5051542;28;20198;-73
2022/03/25 12:50:53;;;;;;;4.93;1.90;;;19.20;89.60;;;;;;5047905;28;20777;-73
2022/03/25 12:53:30;;;;;;;6.87;2.10;;;19.20;89.90;;;;;;5050843;28;20184;-73
2022/03/25 12:56:01;;;;;;;5.93;1.70;;;19.10;90.10;;;;;;5053356;28;20176;-72
2022/03/25 12:58:29;;;;;;;12.60;2.47;;;19.20;90.50;;;;;;5047035;28;20271;-72
2022/03/25 13:00:58;;;;;;;5.83;2.00;;;19.20;90.40;;;;;;5039023;28;20228;-73
2022/03/25 13:03:33;;;;;;;6.80;2.13;;;19.20;90.40;;;;;;5048274;28;20635;-72
2022/03/25 13:06:12;;;;;;;9.27;2.73;;;19.20;90.30;;;;;;5051270;28;20223;-72